createdAt,value
2019-03-30T00:00:01.623Z,18.17
2019-03-30T00:02:30.760Z,17.32
2019-03-30T00:05:00.571Z,17.85
2019-03-30T00:07:29.698Z,17.90
2019-03-30T00:09:58.787Z,16.50
2019-03-30T00:12:27.875Z,17.40
2019-03-30T00:14:56.993Z,16.57
2019-03-30T00:17:29.384Z,17.52
2019-03-30T00:19:58.515Z,15.70
2019-03-30T00:22:27.611Z,15.75
2019-03-30T00:24:56.723Z,15.45
2019-03-30T00:27:26.421Z,16.30
2019-03-30T00:29:58.160Z,17.07
2019-03-30T00:32:27.249Z,15.43
2019-03-30T00:34:56.349Z,16.32
2019-03-30T00:37:25.426Z,15.65
2019-03-30T00:39:54.553Z,14.07
2019-03-30T00:42:23.650Z,14.73
2019-03-30T00:44:52.790Z,15.65
2019-03-30T00:47:21.962Z,16.20
2019-03-30T00:49:51.077Z,15.75
2019-03-30T00:52:20.182Z,17.57
2019-03-30T00:54:49.483Z,15.65
2019-03-30T00:57:18.583Z,16.30
2019-03-30T00:59:47.691Z,14.85
2019-03-30T01:02:17.156Z,15.13
2019-03-30T01:04:46.662Z,15.00
2019-03-30T01:07:16.054Z,16.95
2019-03-30T01:09:45.161Z,13.70
2019-03-30T01:12:16.385Z,13.58
2019-03-30T01:14:45.538Z,15.25
2019-03-30T01:17:14.650Z,15.53
2019-03-30T01:19:43.803Z,15.40
2019-03-30T01:22:12.904Z,16.70
2019-03-30T01:24:42.065Z,14.10
2019-03-30T01:27:11.169Z,14.23
2019-03-30T01:29:40.267Z,13.83
2019-03-30T01:32:09.337Z,12.95
2019-03-30T01:34:38.438Z,13.38
2019-03-30T01:37:07.508Z,13.72
2019-03-30T01:39:36.628Z,12.58
2019-03-30T01:42:06.268Z,13.32
2019-03-30T01:44:35.392Z,14.78
2019-03-30T01:47:04.500Z,13.62
2019-03-30T01:49:33.611Z,15.30
2019-03-30T01:52:02.718Z,17.32
2019-03-30T01:54:31.827Z,16.95
2019-03-30T01:57:04.110Z,14.55
2019-03-30T01:59:33.213Z,14.65
2019-03-30T02:02:02.300Z,13.88
2019-03-30T02:04:31.413Z,14.03
2019-03-30T02:07:01.059Z,15.40
2019-03-30T02:09:30.160Z,15.20
2019-03-30T02:11:59.271Z,14.68
2019-03-30T02:14:30.861Z,17.48
2019-03-30T02:16:59.971Z,14.85
2019-03-30T02:19:29.088Z,16.37
2019-03-30T02:21:58.156Z,14.70
2019-03-30T02:24:27.270Z,17.20
2019-03-30T02:26:56.359Z,16.80
2019-03-30T02:29:25.492Z,16.45
2019-03-30T02:31:54.597Z,15.15
2019-03-30T02:34:23.698Z,15.68
2019-03-30T02:36:52.798Z,16.35
2019-03-30T02:39:21.910Z,15.83
2019-03-30T02:41:51.012Z,16.42
2019-03-30T02:44:22.903Z,14.60
2019-03-30T02:46:51.980Z,16.48
2019-03-30T02:49:21.089Z,15.58
2019-03-30T02:51:50.195Z,18.17
2019-03-30T02:54:19.466Z,17.20
2019-03-30T02:56:48.610Z,15.18
2019-03-30T02:59:17.707Z,16.50
2019-03-30T03:01:46.833Z,15.53
2019-03-30T03:04:16.165Z,15.70
2019-03-30T03:06:45.278Z,14.20
2019-03-30T03:09:14.375Z,19.35
2019-03-30T03:11:43.476Z,15.90
2019-03-30T03:14:13.635Z,16.07
2019-03-30T03:16:45.307Z,18.00
2019-03-30T03:19:14.433Z,17.37
2019-03-30T03:21:44.800Z,15.58
2019-03-30T03:24:13.893Z,14.90
2019-03-30T03:26:43.027Z,17.82
2019-03-30T03:29:12.118Z,19.42
2019-03-30T03:31:41.599Z,16.65
2019-03-30T03:34:10.894Z,16.65
2019-03-30T03:36:39.998Z,15.88
2019-03-30T03:39:09.083Z,15.98
2019-03-30T03:41:38.212Z,18.05
2019-03-30T03:44:07.276Z,18.62
2019-03-30T03:46:36.779Z,17.12
2019-03-30T03:49:05.872Z,14.98
2019-03-30T03:51:34.988Z,16.57
2019-03-30T03:54:04.373Z,15.98
2019-03-30T03:56:33.483Z,19.12
2019-03-30T03:59:02.768Z,21.97
2019-03-30T04:01:32.109Z,18.23
2019-03-30T04:04:01.185Z,20.43
2019-03-30T04:06:30.378Z,19.20
2019-03-30T04:08:59.472Z,18.15
2019-03-30T04:11:28.602Z,14.28
2019-03-30T04:13:57.686Z,20.02
2019-03-30T04:16:26.786Z,16.25
2019-03-30T04:18:55.885Z,17.12
2019-03-30T04:21:42.975Z,16.17
2019-03-30T04:23:58.462Z,16.37
2019-03-30T04:26:27.558Z,19.62
2019-03-30T04:28:56.636Z,19.75
2019-03-30T04:31:25.740Z,20.10
2019-03-30T04:33:54.836Z,18.62
2019-03-30T04:36:24.002Z,21.07
2019-03-30T04:38:53.726Z,19.77
2019-03-30T04:41:22.877Z,19.90
2019-03-30T04:43:51.971Z,15.20
2019-03-30T04:46:21.083Z,17.15
2019-03-30T04:48:50.201Z,17.30
2019-03-30T04:51:19.646Z,18.25
2019-03-30T04:53:52.202Z,17.23
2019-03-30T04:56:21.314Z,15.38
2019-03-30T04:58:50.395Z,19.85
2019-03-30T05:01:19.500Z,24.05
2019-03-30T05:03:48.602Z,21.25
2019-03-30T05:06:17.712Z,21.68
2019-03-30T05:08:46.826Z,21.17
2019-03-30T05:11:19.270Z,21.35
2019-03-30T05:13:48.361Z,22.20
2019-03-30T05:16:17.474Z,22.95
2019-03-30T05:18:46.560Z,20.00
2019-03-30T05:21:15.668Z,22.52
2019-03-30T05:23:44.812Z,19.00
2019-03-30T05:26:13.890Z,20.40
2019-03-30T05:28:43.033Z,20.45
2019-03-30T05:31:12.523Z,17.70
2019-03-30T05:33:41.950Z,16.20
2019-03-30T05:36:11.052Z,16.20
2019-03-30T05:38:42.662Z,16.35
2019-03-30T05:41:14.224Z,17.23
2019-03-30T05:43:43.309Z,18.95
2019-03-30T05:46:12.418Z,16.12
2019-03-30T05:48:41.555Z,17.10
2019-03-30T05:51:10.652Z,17.07
2019-03-30T05:53:39.775Z,17.17
2019-03-30T05:56:08.890Z,15.38
2019-03-30T05:58:38.115Z,16.48
2019-03-30T06:01:07.221Z,18.80
2019-03-30T06:03:36.328Z,16.02
2019-03-30T06:06:05.451Z,17.30
2019-03-30T06:08:38.694Z,16.20
2019-03-30T06:11:07.792Z,16.82
2019-03-30T06:13:37.751Z,16.40
2019-03-30T06:16:14.191Z,17.82
2019-03-30T06:18:43.784Z,17.37
2019-03-30T06:21:13.389Z,17.65
2019-03-30T06:23:42.504Z,16.67
2019-03-30T06:26:14.138Z,17.20
2019-03-30T06:28:43.249Z,16.12
2019-03-30T06:31:12.348Z,15.90
2019-03-30T06:33:41.980Z,17.62
2019-03-30T06:36:11.068Z,15.75
2019-03-30T06:38:43.989Z,16.85
2019-03-30T06:41:13.073Z,16.25
2019-03-30T06:43:42.195Z,15.72
2019-03-30T06:46:11.272Z,17.00
2019-03-30T06:48:40.399Z,17.25
2019-03-30T06:51:09.496Z,18.30
2019-03-30T06:53:38.927Z,16.37
2019-03-30T06:56:08.047Z,15.48
2019-03-30T06:58:37.135Z,16.60
2019-03-30T07:01:06.219Z,17.32
2019-03-30T07:03:35.326Z,16.67
2019-03-30T07:06:04.721Z,15.85
2019-03-30T07:08:33.855Z,16.00
2019-03-30T07:11:02.995Z,16.00
2019-03-30T07:13:32.112Z,16.37
2019-03-30T07:16:01.183Z,17.20
2019-03-30T07:18:32.797Z,16.73
2019-03-30T07:21:01.889Z,16.37
2019-03-30T07:23:33.753Z,16.05
2019-03-30T07:26:04.199Z,17.25
2019-03-30T07:28:33.346Z,17.10
2019-03-30T07:31:02.807Z,18.57
2019-03-30T07:33:31.953Z,17.60
2019-03-30T07:36:01.451Z,16.97
2019-03-30T07:38:30.547Z,16.60
2019-03-30T07:41:00.595Z,17.25
2019-03-30T07:43:29.687Z,16.95
2019-03-30T07:45:59.343Z,15.85
2019-03-30T07:48:28.432Z,16.77
2019-03-30T07:50:58.195Z,17.12
2019-03-30T07:53:27.303Z,15.78
2019-03-30T07:56:07.873Z,18.02
2019-03-30T07:58:27.428Z,17.05
2019-03-30T08:00:56.830Z,15.95
2019-03-30T08:03:25.966Z,17.40
2019-03-30T08:05:58.509Z,16.73
2019-03-30T08:08:27.611Z,16.37
2019-03-30T08:10:56.717Z,17.05
2019-03-30T08:13:25.838Z,15.32
2019-03-30T08:15:55.045Z,16.05
2019-03-30T08:18:27.752Z,15.23
2019-03-30T08:20:57.239Z,16.20
2019-03-30T08:23:40.342Z,17.30
2019-03-30T08:26:01.264Z,16.12
2019-03-30T08:28:30.747Z,16.23
2019-03-30T08:31:00.114Z,16.52
2019-03-30T08:33:31.571Z,14.87
2019-03-30T08:36:04.042Z,14.20
2019-03-30T08:38:33.172Z,16.15
2019-03-30T08:41:02.302Z,15.45
2019-03-30T08:43:31.437Z,15.90
2019-03-30T08:46:03.666Z,14.95
2019-03-30T08:48:36.536Z,15.10
2019-03-30T08:51:05.638Z,16.10
2019-03-30T08:53:34.784Z,14.50
2019-03-30T08:56:07.285Z,15.55
2019-03-30T08:58:45.362Z,16.32
2019-03-30T09:01:15.602Z,16.12
2019-03-30T09:03:47.986Z,14.00
2019-03-30T09:06:17.097Z,15.13
2019-03-30T09:08:46.564Z,14.83
2019-03-30T09:11:15.657Z,14.75
2019-03-30T09:13:48.443Z,15.38
2019-03-30T09:16:17.540Z,14.53
2019-03-30T09:18:47.358Z,15.32
2019-03-30T09:21:16.782Z,14.78
2019-03-30T09:23:45.936Z,15.15
2019-03-30T09:26:18.238Z,15.35
2019-03-30T09:28:47.648Z,15.90
2019-03-30T09:31:16.803Z,16.40
2019-03-30T09:33:49.232Z,16.10
2019-03-30T09:36:21.431Z,14.83
2019-03-30T09:38:53.427Z,14.47
2019-03-30T09:41:22.698Z,16.27
2019-03-30T09:43:51.781Z,14.75
2019-03-30T09:46:20.898Z,16.55
2019-03-30T09:48:50.317Z,17.07
2019-03-30T09:51:19.713Z,16.50
2019-03-30T09:53:51.888Z,14.70
2019-03-30T09:56:20.989Z,15.85
2019-03-30T09:58:50.094Z,15.38
2019-03-30T10:01:19.190Z,15.58
2019-03-30T10:03:48.265Z,15.85
2019-03-30T10:06:17.348Z,15.63
2019-03-30T10:08:48.599Z,14.87
2019-03-30T10:11:18.055Z,14.70
2019-03-30T10:13:47.157Z,14.63
2019-03-30T10:16:16.252Z,15.63
2019-03-30T10:18:45.351Z,14.87
2019-03-30T10:21:14.459Z,14.55
2019-03-30T10:23:43.549Z,15.70
2019-03-30T10:26:12.725Z,14.50
2019-03-30T10:28:41.811Z,14.30
2019-03-30T10:31:10.912Z,14.20
2019-03-30T10:33:40.285Z,14.78
2019-03-30T10:36:09.378Z,14.53
2019-03-30T10:38:38.472Z,15.55
2019-03-30T10:41:14.587Z,14.00
2019-03-30T10:43:44.674Z,14.65
2019-03-30T10:46:13.785Z,15.03
2019-03-30T10:48:42.882Z,14.28
2019-03-30T10:51:11.988Z,13.20
2019-03-30T10:53:41.087Z,14.98
2019-03-30T10:56:13.273Z,14.28
2019-03-30T10:58:42.664Z,12.98
2019-03-30T11:01:11.759Z,13.60
2019-03-30T11:03:41.768Z,13.68
2019-03-30T11:06:10.873Z,12.93
2019-03-30T11:08:40.272Z,13.75
2019-03-30T11:11:09.523Z,13.20
2019-03-30T11:13:42.412Z,12.63
2019-03-30T11:16:11.562Z,31.40
2019-03-30T11:18:44.023Z,12.43
2019-03-30T11:21:13.513Z,12.18
2019-03-30T11:23:42.593Z,13.60
2019-03-30T11:26:12.025Z,12.85
2019-03-30T11:28:41.174Z,12.75
2019-03-30T11:31:10.268Z,14.35
2019-03-30T11:33:39.358Z,14.98
2019-03-30T11:36:11.877Z,12.78
2019-03-30T11:38:40.985Z,12.28
2019-03-30T11:41:10.486Z,12.65
2019-03-30T11:43:39.994Z,11.60
2019-03-30T11:46:09.122Z,12.53
2019-03-30T11:48:38.587Z,13.43
2019-03-30T11:51:08.100Z,13.03
2019-03-30T11:53:37.487Z,12.73
2019-03-30T11:56:06.616Z,13.18
2019-03-30T11:58:36.088Z,12.60
2019-03-30T12:01:05.311Z,12.43
2019-03-30T12:03:34.444Z,11.55
2019-03-30T12:06:03.561Z,13.70
2019-03-30T12:08:35.333Z,11.97
2019-03-30T12:11:04.439Z,12.15
2019-03-30T12:13:33.548Z,11.33
2019-03-30T12:16:02.656Z,12.00
2019-03-30T12:18:31.752Z,11.63
2019-03-30T12:21:00.888Z,9.83
2019-03-30T12:23:30.701Z,10.43
2019-03-30T12:26:00.558Z,11.57
2019-03-30T12:28:29.651Z,12.98
2019-03-30T12:30:59.337Z,11.95
2019-03-30T12:33:30.394Z,10.00
2019-03-30T12:36:00.997Z,10.45
2019-03-30T12:38:33.171Z,11.90
2019-03-30T12:41:02.298Z,11.78
2019-03-30T12:43:34.091Z,11.12
2019-03-30T12:46:03.566Z,11.12
2019-03-30T12:48:32.651Z,10.88
2019-03-30T12:51:01.840Z,10.20
2019-03-30T12:53:30.997Z,9.60
2019-03-30T12:56:00.512Z,10.68
2019-03-30T12:58:29.599Z,9.73
2019-03-30T13:00:58.713Z,9.88
2019-03-30T13:03:27.870Z,11.03
2019-03-30T13:05:57.748Z,10.40
2019-03-30T13:08:27.185Z,10.72
2019-03-30T13:10:56.290Z,10.23
2019-03-30T13:13:25.447Z,10.93
2019-03-30T13:15:54.572Z,9.85
2019-03-30T13:18:23.661Z,10.18
2019-03-30T13:20:52.797Z,11.00
2019-03-30T13:23:22.279Z,11.88
2019-03-30T13:26:03.423Z,11.05
2019-03-30T13:28:28.678Z,10.75
2019-03-30T13:30:58.488Z,10.00
2019-03-30T13:33:27.585Z,11.18
2019-03-30T13:35:56.716Z,10.18
2019-03-30T13:38:26.497Z,11.18
2019-03-30T13:40:55.658Z,11.33
2019-03-30T13:43:25.562Z,11.28
2019-03-30T13:45:58.203Z,10.40
2019-03-30T13:48:28.724Z,9.45
2019-03-30T13:50:57.868Z,8.70
2019-03-30T13:53:26.997Z,7.72
2019-03-30T13:55:56.120Z,8.05
2019-03-30T13:58:28.531Z,8.35
2019-03-30T14:00:57.981Z,8.20
2019-03-30T14:03:30.221Z,8.38
2019-03-30T14:05:59.773Z,8.43
2019-03-30T14:08:29.087Z,7.03
2019-03-30T14:10:58.474Z,7.87
2019-03-30T14:13:30.042Z,7.03
2019-03-30T14:15:59.199Z,8.18
2019-03-30T14:18:31.843Z,7.65
2019-03-30T14:21:01.760Z,7.08
2019-03-30T14:23:30.949Z,8.50
2019-03-30T14:26:00.411Z,7.87
2019-03-30T14:28:32.959Z,9.10
2019-03-30T14:31:02.811Z,7.10
2019-03-30T14:33:31.920Z,7.62
2019-03-30T14:36:01.436Z,7.65
2019-03-30T14:38:30.560Z,8.10
2019-03-30T14:40:59.725Z,8.50
2019-03-30T14:43:29.149Z,8.70
2019-03-30T14:46:01.400Z,8.43
2019-03-30T14:48:30.559Z,7.78
2019-03-30T14:51:00.005Z,8.88
2019-03-30T14:53:29.140Z,7.67
2019-03-30T14:56:02.074Z,6.90
2019-03-30T14:58:34.581Z,7.60
2019-03-30T15:01:03.696Z,7.55
2019-03-30T15:03:33.147Z,8.03
2019-03-30T15:06:07.176Z,7.20
2019-03-30T15:08:39.736Z,7.83
2019-03-30T15:11:12.173Z,7.67
2019-03-30T15:13:41.391Z,7.17
2019-03-30T15:16:10.856Z,7.20
2019-03-30T15:18:43.430Z,8.18
2019-03-30T15:21:13.550Z,7.22
2019-03-30T15:23:43.389Z,7.60
2019-03-30T15:26:13.555Z,7.25
2019-03-30T15:28:43.037Z,7.67
2019-03-30T15:31:12.562Z,7.42
2019-03-30T15:33:41.693Z,8.48
2019-03-30T15:36:11.013Z,10.13
2019-03-30T15:38:40.786Z,9.10
2019-03-30T15:41:10.232Z,9.70
2019-03-30T15:43:39.365Z,9.50
2019-03-30T15:46:09.255Z,10.25
2019-03-30T15:48:39.841Z,10.60
2019-03-30T15:51:09.250Z,10.48
2019-03-30T15:53:38.740Z,10.32
2019-03-30T15:56:08.332Z,9.98
2019-03-30T15:58:38.034Z,10.63
2019-03-30T16:01:07.167Z,10.08
2019-03-30T16:03:36.311Z,11.28
2019-03-30T16:06:09.179Z,10.40
2019-03-30T16:08:42.865Z,11.23
2019-03-30T16:11:11.981Z,11.00
2019-03-30T16:13:41.454Z,11.63
2019-03-30T16:16:10.547Z,11.05
2019-03-30T16:18:45.700Z,11.00
2019-03-30T16:21:14.818Z,11.35
2019-03-30T16:23:45.122Z,11.35
2019-03-30T16:26:14.986Z,10.58
2019-03-30T16:28:46.073Z,10.50
2019-03-30T16:31:18.861Z,11.10
2019-03-30T16:33:47.980Z,11.25
2019-03-30T16:36:17.074Z,11.05
2019-03-30T16:38:46.210Z,11.78
2019-03-30T16:41:16.698Z,12.82
2019-03-30T16:43:46.851Z,11.53
2019-03-30T16:46:17.044Z,11.85
2019-03-30T16:48:49.777Z,12.53
2019-03-30T16:51:21.575Z,13.05
2019-03-30T16:53:51.539Z,12.65
2019-03-30T16:56:21.368Z,12.58
2019-03-30T16:58:50.475Z,12.20
2019-03-30T17:01:23.693Z,13.78
2019-03-30T17:03:52.814Z,12.13
2019-03-30T17:06:21.969Z,12.45
2019-03-30T17:08:51.066Z,12.07
2019-03-30T17:11:20.820Z,13.45
2019-03-30T17:13:49.960Z,13.18
2019-03-30T17:16:19.088Z,14.05
2019-03-30T17:18:48.204Z,14.13
2019-03-30T17:21:17.309Z,12.60
2019-03-30T17:23:46.853Z,15.05
2019-03-30T17:26:16.010Z,13.98
2019-03-30T17:28:45.492Z,13.48
2019-03-30T17:31:14.596Z,14.73
2019-03-30T17:33:43.720Z,13.70
2019-03-30T17:36:14.683Z,20.00
2019-03-30T17:38:47.295Z,45.08
2019-03-30T17:41:16.402Z,15.15
2019-03-30T17:43:46.007Z,16.73
2019-03-30T17:46:15.115Z,18.48
2019-03-30T17:48:47.713Z,16.82
2019-03-30T17:51:17.959Z,16.73
2019-03-30T17:53:47.101Z,17.25
2019-03-30T17:56:16.247Z,17.73
2019-03-30T17:58:45.371Z,18.25
2019-03-30T18:01:15.909Z,17.35
2019-03-30T18:03:47.427Z,25.08
2019-03-30T18:06:17.263Z,16.75
2019-03-30T18:08:46.375Z,17.98
2019-03-30T18:11:15.475Z,22.52
2019-03-30T18:13:44.629Z,18.05
2019-03-30T18:16:13.802Z,21.50
2019-03-30T18:18:52.029Z,18.73
2019-03-30T18:21:21.558Z,17.90
2019-03-30T18:23:50.979Z,18.52
2019-03-30T18:26:20.129Z,19.07
2019-03-30T18:28:51.168Z,19.27
2019-03-30T18:31:20.233Z,18.60
2019-03-30T18:33:51.597Z,17.95
2019-03-30T18:36:20.759Z,18.10
2019-03-30T18:38:50.155Z,17.40
2019-03-30T18:41:26.521Z,18.50
2019-03-30T18:43:56.246Z,18.07
2019-03-30T18:46:25.445Z,18.73
2019-03-30T18:48:55.224Z,19.17
2019-03-30T18:51:30.195Z,18.92
2019-03-30T18:53:59.390Z,19.62
2019-03-30T18:56:31.257Z,20.80
2019-03-30T18:59:00.375Z,20.65
2019-03-30T19:01:29.573Z,20.77
2019-03-30T19:04:01.143Z,21.87
2019-03-30T19:06:30.460Z,23.02
2019-03-30T19:09:03.070Z,25.43
2019-03-30T19:11:35.531Z,24.77
2019-03-30T19:14:04.741Z,23.20
2019-03-30T19:16:36.941Z,22.62
2019-03-30T19:19:09.107Z,22.93
2019-03-30T19:21:38.898Z,21.25
2019-03-30T19:24:08.414Z,23.65
2019-03-30T19:26:37.717Z,21.82
2019-03-30T19:29:06.888Z,22.62
2019-03-30T19:31:35.998Z,23.15
2019-03-30T19:34:05.816Z,24.05
2019-03-30T19:36:36.162Z,24.10
2019-03-30T19:39:08.156Z,24.05
2019-03-30T19:41:37.248Z,22.90
2019-03-30T19:44:06.411Z,24.75
2019-03-30T19:46:35.821Z,23.87
2019-03-30T19:49:04.929Z,23.77
2019-03-30T19:51:34.517Z,26.10
2019-03-30T19:54:07.597Z,26.70
2019-03-30T19:56:36.690Z,28.23
2019-03-30T19:59:12.287Z,27.05
2019-03-30T20:01:41.672Z,28.35
2019-03-30T20:04:14.759Z,29.87
2019-03-30T20:06:46.032Z,29.95
2019-03-30T20:09:15.911Z,28.75
2019-03-30T20:11:45.009Z,29.72
2019-03-30T20:14:14.114Z,31.65
2019-03-30T20:16:43.196Z,33.67
2019-03-30T20:19:13.241Z,31.48
2019-03-30T20:21:42.476Z,32.33
2019-03-30T20:24:11.604Z,30.55
2019-03-30T20:26:40.709Z,30.23
2019-03-30T20:29:24.388Z,31.10
2019-03-30T20:31:44.918Z,35.83
2019-03-30T20:34:14.332Z,31.27
2019-03-30T20:36:43.587Z,31.87
2019-03-30T20:39:12.712Z,29.25
2019-03-30T20:41:41.840Z,33.18
2019-03-30T20:44:10.986Z,33.48
2019-03-30T20:46:43.455Z,31.57
2019-03-30T20:49:10.908Z,33.25
2019-03-30T20:51:40.509Z,35.15
2019-03-30T20:54:09.957Z,30.02
2019-03-30T20:56:39.091Z,33.42
2019-03-30T20:59:08.155Z,29.77
2019-03-30T21:01:38.464Z,28.98
2019-03-30T21:04:07.698Z,32.45
2019-03-30T21:06:36.808Z,36.93
2019-03-30T21:09:07.470Z,31.10
2019-03-30T21:11:36.840Z,30.70
2019-03-30T21:14:06.601Z,30.17
2019-03-30T21:16:36.312Z,28.65
2019-03-30T21:19:05.727Z,31.95
2019-03-30T21:21:34.826Z,30.02
2019-03-30T21:24:04.780Z,28.70
2019-03-30T21:26:34.462Z,28.27
2019-03-30T21:29:03.569Z,26.90
2019-03-30T21:31:33.000Z,27.00
2019-03-30T21:34:07.448Z,25.02
2019-03-30T21:36:40.685Z,24.72
2019-03-30T21:39:09.817Z,25.17
2019-03-30T21:41:39.177Z,24.40
2019-03-30T21:44:21.337Z,24.35
2019-03-30T21:46:39.117Z,23.95
2019-03-30T21:49:08.202Z,21.55
2019-03-30T21:51:37.308Z,23.38
2019-03-30T21:54:07.119Z,24.52
2019-03-30T21:56:39.348Z,22.50
2019-03-30T21:59:08.401Z,21.48
2019-03-30T22:01:37.515Z,22.60
2019-03-30T22:04:06.959Z,22.15
2019-03-30T22:06:36.265Z,23.20
2019-03-30T22:09:06.785Z,22.62
2019-03-30T22:11:35.998Z,22.07
2019-03-30T22:14:05.406Z,22.30
2019-03-30T22:16:37.835Z,23.02
2019-03-30T22:19:07.227Z,23.22
2019-03-30T22:21:36.711Z,23.38
2019-03-30T22:24:05.820Z,23.95
2019-03-30T22:26:38.093Z,23.92
2019-03-30T22:29:08.132Z,22.93
2019-03-30T22:31:37.253Z,23.20
2019-03-30T22:34:06.687Z,23.18
2019-03-30T22:36:36.524Z,23.42
2019-03-30T22:39:07.615Z,23.83
2019-03-30T22:41:39.278Z,23.52
2019-03-30T22:44:08.799Z,22.67
2019-03-30T22:46:37.911Z,22.98
2019-03-30T22:49:10.954Z,23.27
2019-03-30T22:51:40.058Z,23.62
2019-03-30T22:54:09.881Z,25.60
2019-03-30T22:56:39.418Z,23.90
2019-03-30T22:59:11.063Z,23.67
2019-03-30T23:01:40.775Z,23.83
2019-03-30T23:04:10.203Z,25.32
2019-03-30T23:06:39.994Z,24.43
2019-03-30T23:09:11.408Z,26.10
2019-03-30T23:11:41.069Z,28.70
2019-03-30T23:14:11.198Z,27.50
2019-03-30T23:16:41.099Z,30.92
2019-03-30T23:19:10.189Z,29.92
2019-03-30T23:21:39.343Z,31.07
2019-03-30T23:24:12.398Z,32.48
2019-03-30T23:26:41.503Z,28.47
2019-03-30T23:29:11.001Z,27.82
2019-03-30T23:31:43.242Z,26.27
2019-03-30T23:34:13.116Z,27.35
2019-03-30T23:36:42.271Z,29.02
2019-03-30T23:39:12.109Z,29.35
2019-03-30T23:41:41.937Z,27.98
2019-03-30T23:44:11.011Z,27.62
2019-03-30T23:46:40.087Z,29.35
2019-03-30T23:49:09.899Z,26.62
2019-03-30T23:51:40.349Z,27.27
2019-03-30T23:54:12.005Z,25.62
2019-03-30T23:56:41.737Z,25.92
2019-03-30T23:59:11.510Z,25.25
